sensor_id;sensor_type;location;lat;lon;timestamp;pressure;altitude;pressure_sealevel;temperature;humidity
75497;BME280;64074;47.540;19.072;2024-02-15T02:10:12;101341.69;;;8.42;66.57
75497;BME280;64074;47.540;19.072;2024-02-15T02:13:18;101343.84;;;8.40;67.09
75497;BME280;64074;47.540;19.072;2024-02-15T02:19:30;101337.47;;;8.24;67.22
75497;BME280;64074;47.540;19.072;2024-02-15T02:22:36;101338.00;;;7.99;67.23
75497;BME280;64074;47.540;19.072;2024-02-15T02:25:41;101335.94;;;7.85;68.42
75497;BME280;64074;47.540;19.072;2024-02-15T02:28:47;101331.34;;;7.85;68.16
75497;BME280;64074;47.540;19.072;2024-02-15T02:31:51;101333.41;;;8.00;67.41
75497;BME280;64074;47.540;19.072;2024-02-15T02:34:58;101332.66;;;8.05;67.54
75497;BME280;64074;47.540;19.072;2024-02-15T02:38:03;101326.47;;;8.09;68.01
75497;BME280;64074;47.540;19.072;2024-02-15T02:41:07;101337.78;;;8.06;68.39
75497;BME280;64074;47.540;19.072;2024-02-15T02:44:10;101336.81;;;8.17;68.08
75497;BME280;64074;47.540;19.072;2024-02-15T02:47:23;101340.34;;;8.18;68.57
75497;BME280;64074;47.540;19.072;2024-02-15T02:50:29;101336.34;;;8.20;67.88
75497;BME280;64074;47.540;19.072;2024-02-15T02:53:33;101337.47;;;8.24;67.90
75497;BME280;64074;47.540;19.072;2024-02-15T02:56:37;101333.47;;;8.32;67.82
75497;BME280;64074;47.540;19.072;2024-02-15T02:59:42;101331.59;;;8.32;67.77
75497;BME280;64074;47.540;19.072;2024-02-15T03:02:46;101329.47;;;8.35;67.80
75497;BME280;64074;47.540;19.072;2024-02-15T03:05:50;101341.38;;;8.39;68.01
75497;BME280;64074;47.540;19.072;2024-02-15T03:08:54;101348.16;;;8.41;68.57
75497;BME280;64074;47.540;19.072;2024-02-15T03:11:58;101340.06;;;8.41;67.92
75497;BME280;64074;47.540;19.072;2024-02-15T03:15:06;101341.69;;;8.42;67.51
75497;BME280;64074;47.540;19.072;2024-02-15T03:18:16;101338.94;;;8.37;67.48
75497;BME280;64074;47.540;19.072;2024-02-15T03:21:20;101336.44;;;8.30;68.37
75497;BME280;64074;47.540;19.072;2024-02-15T03:24:24;101344.78;;;8.02;68.96
75497;BME280;64074;47.540;19.072;2024-02-15T03:27:29;101337.28;;;8.09;69.04
75497;BME280;64074;47.540;19.072;2024-02-15T03:30:33;101340.53;;;8.11;68.81
75497;BME280;64074;47.540;19.072;2024-02-15T03:33:42;101351.34;;;8.11;68.47
75497;BME280;64074;47.540;19.072;2024-02-15T03:36:47;101347.28;;;8.09;68.89
75497;BME280;64074;47.540;19.072;2024-02-15T03:39:57;101352.63;;;8.03;69.01
75497;BME280;64074;47.540;19.072;2024-02-15T03:43:01;101349.72;;;8.10;69.19
75497;BME280;64074;47.540;19.072;2024-02-15T03:46:04;101356.66;;;8.01;69.24
75497;BME280;64074;47.540;19.072;2024-02-15T03:49:07;101357.03;;;7.88;70.21
75497;BME280;64074;47.540;19.072;2024-02-15T03:52:11;101354.88;;;7.90;70.02
75497;BME280;64074;47.540;19.072;2024-02-15T03:55:15;101347.31;;;8.14;69.57
75497;BME280;64074;47.540;19.072;2024-02-15T03:58:19;101346.47;;;8.08;69.55
75497;BME280;64074;47.540;19.072;2024-02-15T04:01:22;101349.91;;;8.25;69.65
75497;BME280;64074;47.540;19.072;2024-02-15T04:08:32;101349.28;;;8.18;69.78
75497;BME280;64074;47.540;19.072;2024-02-15T04:11:36;101356.13;;;8.04;70.63
75497;BME280;64074;47.540;19.072;2024-02-15T04:14:43;101349.91;;;8.25;70.59
75497;BME280;64074;47.540;19.072;2024-02-15T04:17:57;101345.09;;;8.32;70.16
75497;BME280;64074;47.540;19.072;2024-02-15T04:21:01;101344.88;;;8.34;69.94
75497;BME280;64074;47.540;19.072;2024-02-15T04:24:06;101340.31;;;8.40;69.60
75497;BME280;64074;47.540;19.072;2024-02-15T04:27:10;101341.69;;;8.42;69.28
75497;BME280;64074;47.540;19.072;2024-02-15T04:30:24;101336.06;;;8.44;69.23
75497;BME280;64074;47.540;19.072;2024-02-15T04:33:28;101330.53;;;8.33;69.81
75497;BME280;64074;47.540;19.072;2024-02-15T04:36:32;101335.63;;;8.30;69.70
75497;BME280;64074;47.540;19.072;2024-02-15T04:39:37;101341.91;;;8.14;69.66
75497;BME280;64074;47.540;19.072;2024-02-15T04:42:41;101344.22;;;8.00;70.50
75497;BME280;64074;47.540;19.072;2024-02-15T04:45:48;101344.66;;;7.92;71.58
75497;BME280;64074;47.540;19.072;2024-02-15T04:48:51;101339.53;;;7.68;72.36
75497;BME280;64074;47.540;19.072;2024-02-15T04:51:58;101347.19;;;7.98;71.71
75497;BME280;64074;47.540;19.072;2024-02-15T04:55:05;101334.50;;;7.99;71.62
75497;BME280;64074;47.540;19.072;2024-02-15T04:58:08;101348.13;;;8.14;71.38
75497;BME280;64074;47.540;19.072;2024-02-15T05:01:14;101343.63;;;8.20;70.97
